This is the latest recevied weather packets stored in our database for station/object OK1FPA-13. If no packets are shown the sender has not sent any weather packets the latest 10 day(s).
| Time | Temp. | Humidity | Pressure | Rain* | Wind** | Luminosity | Snow |
|---|---|---|---|---|---|---|---|
| 1777270456 | 6.11° C | 60% | 1024.1 hPa | - | - | - | - |
| 1777269856 | 5.56° C | 60% | 1024 hPa | - | - | - | - |
| 1777269256 | 5° C | 63% | 1023.9 hPa | - | - | - | - |
| 1777268656 | 4.44° C | 65% | 1024 hPa | - | - | - | - |
| 1777268056 | 3.89° C | 67% | 1023.9 hPa | - | - | - | - |
| 1777267456 | 3.33° C | 73% | 1024 hPa | - | - | - | - |
| 1777266856 | 2.22° C | 82% | 1024 hPa | - | - | - | - |
| 1777266257 | 1.67° C | 93% | 1023.9 hPa | - | - | - | - |
| 1777265656 | 0.56° C | 94% | 1023.9 hPa | - | - | - | - |
| 1777265056 | 0° C | 92% | 1023.8 hPa | - | - | - | - |
| 1777264455 | -0.56° C | 90% | 1023.8 hPa | - | - | - | - |
| 1777263855 | -0.56° C | 89% | 1023.8 hPa | - | - | - | - |
| 1777263256 | -0.56° C | 91% | 1023.8 hPa | - | - | - | - |
| 1777262655 | -1.11° C | 94% | 1023.9 hPa | - | - | - | - |
| 1777262056 | -1.11° C | 94% | 1023.8 hPa | - | - | - | - |
| 1777261456 | -1.11° C | 89% | 1023.8 hPa | - | - | - | - |
| 1777260856 | -1.11° C | 88% | 1023.8 hPa | - | - | - | - |
| 1777260256 | -1.11° C | 86% | 1023.8 hPa | - | - | - | - |
| 1777259656 | -0.56° C | 82% | 1023.8 hPa | - | - | - | - |
| 1777259056 | 0° C | 83% | 1023.7 hPa | - | - | - | - |
| 1777258456 | 0° C | 83% | 1023.7 hPa | - | - | - | - |
| 1777257856 | 0° C | 85% | 1023.6 hPa | - | - | - | - |
| 1777257257 | 0° C | 87% | 1023.6 hPa | - | - | - | - |
| 1777256656 | 0° C | 87% | 1023.6 hPa | - | - | - | - |
| 1777256056 | 0° C | 87% | 1023.7 hPa | - | - | - | - |
* Rain since midnight (hover to see other rain measurements)
** Current wind speed in m/s (hover to see current wind gust speed)